createdAt,value
2019-02-15T00:00:13.446Z,99.90
2019-02-15T00:02:41.967Z,99.90
2019-02-15T00:05:29.896Z,99.90
2019-02-15T00:07:58.463Z,99.90
2019-02-15T00:10:27.039Z,99.90
2019-02-15T00:12:55.607Z,99.90
2019-02-15T00:15:24.229Z,99.90
2019-02-15T00:17:54.471Z,99.90
2019-02-15T00:20:33.322Z,99.90
2019-02-15T00:23:01.897Z,99.90
2019-02-15T00:25:30.479Z,99.90
2019-02-15T00:27:59.050Z,99.90
2019-02-15T00:30:27.627Z,99.90
2019-02-15T00:32:56.252Z,99.90
2019-02-15T00:35:24.841Z,99.90
2019-02-15T00:37:53.420Z,99.90
2019-02-15T00:40:22.010Z,99.90
2019-02-15T00:42:50.572Z,99.90
2019-02-15T00:45:20.802Z,99.90
2019-02-15T00:47:53.500Z,99.90
2019-02-15T00:50:23.722Z,99.90
2019-02-15T00:52:59.631Z,99.90
2019-02-15T00:55:32.796Z,99.90
2019-02-15T00:58:25.529Z,99.90
2019-02-15T01:03:46.007Z,99.90
2019-02-15T01:06:32.897Z,99.90
2019-02-15T01:09:09.012Z,99.90
2019-02-15T01:11:45.108Z,99.90
2019-02-15T01:14:14.275Z,99.90
2019-02-15T01:16:44.194Z,99.90
2019-02-15T01:19:12.994Z,99.90
2019-02-15T01:21:41.867Z,99.90
2019-02-15T01:24:10.492Z,99.90
2019-02-15T01:26:41.012Z,99.90
2019-02-15T01:29:27.583Z,99.90
2019-02-15T01:32:16.482Z,99.90
2019-02-15T01:34:48.229Z,99.90
2019-02-15T01:37:34.755Z,99.90
2019-02-15T01:40:05.023Z,99.90
2019-02-15T01:42:47.179Z,99.90
2019-02-15T01:45:17.380Z,99.90
2019-02-15T01:47:45.964Z,99.90
2019-02-15T01:50:14.533Z,99.90
2019-02-15T01:52:43.120Z,99.90
2019-02-15T01:55:11.824Z,99.90
2019-02-15T01:57:40.409Z,99.90
2019-02-15T02:00:31.511Z,99.90
2019-02-15T02:03:00.101Z,99.90
2019-02-15T02:05:28.651Z,99.90
2019-02-15T02:07:57.236Z,99.90
2019-02-15T02:10:25.799Z,99.90
2019-02-15T02:12:54.393Z,99.90
2019-02-15T02:15:22.957Z,99.90
2019-02-15T02:17:51.539Z,99.90
2019-02-15T02:20:20.102Z,99.90
2019-02-15T02:22:48.684Z,99.90
2019-02-15T02:25:17.255Z,99.90
2019-02-15T02:27:45.847Z,99.90
2019-02-15T02:30:14.545Z,99.90
2019-02-15T02:32:43.137Z,99.90
2019-02-15T02:35:11.700Z,99.90
2019-02-15T02:37:40.285Z,99.90
2019-02-15T02:40:09.111Z,99.90
2019-02-15T02:42:37.764Z,99.90
2019-02-15T02:45:07.600Z,99.90
2019-02-15T02:47:36.192Z,99.90
2019-02-15T02:50:06.996Z,99.90
2019-02-15T02:52:35.588Z,99.90
2019-02-15T02:55:05.184Z,99.90
2019-02-15T02:57:33.772Z,99.90
2019-02-15T03:00:02.404Z,99.90
2019-02-15T03:02:31.007Z,99.90
2019-02-15T03:04:59.578Z,99.90
2019-02-15T03:07:28.122Z,99.90
2019-02-15T03:09:56.723Z,99.90
2019-02-15T03:12:25.267Z,99.90
2019-02-15T03:14:53.869Z,99.90
2019-02-15T03:17:22.435Z,99.90
2019-02-15T03:19:51.057Z,99.90
2019-02-15T03:22:19.670Z,99.90
2019-02-15T03:24:48.274Z,99.90
2019-02-15T03:27:16.834Z,99.90
2019-02-15T03:29:45.408Z,99.90
2019-02-15T03:32:13.984Z,99.90
2019-02-15T03:34:42.562Z,99.90
2019-02-15T03:37:24.947Z,99.90
2019-02-15T03:39:55.172Z,99.90
2019-02-15T03:42:24.105Z,99.90
2019-02-15T03:44:52.705Z,99.90
2019-02-15T03:47:22.892Z,99.90
2019-02-15T03:49:51.495Z,99.90
2019-02-15T03:52:20.129Z,99.90
2019-02-15T03:54:48.784Z,99.90
2019-02-15T03:57:17.416Z,99.90
2019-02-15T03:59:46.072Z,99.90
2019-02-15T04:02:14.803Z,99.90
2019-02-15T04:04:43.410Z,99.90
2019-02-15T04:07:11.965Z,99.90
2019-02-15T04:09:40.554Z,99.90
2019-02-15T04:12:09.116Z,99.90
2019-02-15T04:14:37.703Z,99.90
2019-02-15T04:17:06.272Z,99.90
2019-02-15T04:19:34.849Z,99.90
2019-02-15T04:22:03.433Z,99.90
2019-02-15T04:24:32.008Z,99.90
2019-02-15T04:27:00.583Z,99.90
2019-02-15T04:29:29.358Z,99.90
2019-02-15T04:31:59.439Z,99.90
2019-02-15T04:37:56.988Z,99.90
2019-02-15T04:40:25.574Z,99.90
2019-02-15T04:42:54.144Z,99.90
2019-02-15T04:45:22.737Z,99.90
2019-02-15T04:47:51.305Z,99.90
2019-02-15T04:50:19.882Z,99.90
2019-02-15T04:52:48.436Z,99.90
2019-02-15T04:55:17.025Z,99.90
2019-02-15T04:57:45.593Z,99.90
2019-02-15T05:00:14.185Z,99.90
2019-02-15T05:02:42.745Z,99.90
2019-02-15T05:05:11.341Z,99.90
2019-02-15T05:07:39.905Z,99.90
2019-02-15T05:10:08.489Z,99.90
2019-02-15T05:12:37.127Z,99.90
2019-02-15T05:15:07.648Z,99.90
2019-02-15T05:17:36.212Z,99.90
2019-02-15T05:20:06.742Z,99.90
2019-02-15T05:22:35.309Z,99.90
2019-02-15T05:25:03.973Z,99.90
2019-02-15T05:27:32.537Z,99.90
2019-02-15T05:30:01.138Z,99.90
2019-02-15T05:32:29.702Z,99.90
2019-02-15T05:34:58.290Z,99.90
2019-02-15T05:37:26.856Z,99.90
2019-02-15T05:39:55.444Z,99.90
2019-02-15T05:42:24.011Z,99.90
2019-02-15T05:45:03.027Z,99.90
2019-02-15T05:47:22.813Z,99.90
2019-02-15T05:49:51.376Z,99.90
2019-02-15T05:52:19.967Z,99.90
2019-02-15T05:54:48.533Z,99.90
2019-02-15T05:57:17.120Z,99.90
2019-02-15T05:59:45.691Z,99.90
2019-02-15T06:02:14.275Z,99.90
2019-02-15T06:04:42.857Z,99.90
2019-02-15T06:07:11.450Z,99.90
2019-02-15T06:09:40.018Z,99.90
2019-02-15T06:12:08.609Z,99.90
2019-02-15T06:14:37.406Z,99.90
2019-02-15T06:17:05.945Z,99.90
2019-02-15T06:19:34.520Z,99.90
2019-02-15T06:22:03.103Z,99.90
2019-02-15T06:24:31.680Z,99.90
2019-02-15T06:27:00.277Z,99.90
2019-02-15T06:29:28.854Z,99.90
2019-02-15T06:32:12.538Z,99.90
2019-02-15T06:34:41.105Z,99.90
2019-02-15T06:37:09.734Z,99.90
2019-02-15T06:40:28.050Z,99.90
2019-02-15T06:42:56.561Z,99.90
2019-02-15T06:45:25.609Z,99.90
2019-02-15T06:47:54.229Z,99.90
2019-02-15T06:50:22.781Z,99.90
2019-02-15T06:52:51.376Z,99.90
2019-02-15T06:55:19.958Z,99.90
2019-02-15T06:57:48.550Z,99.90
2019-02-15T07:00:36.566Z,99.90
2019-02-15T07:03:06.772Z,99.90
2019-02-15T07:05:35.341Z,99.90
2019-02-15T07:08:03.993Z,99.90
2019-02-15T07:10:32.564Z,99.90
2019-02-15T07:13:01.154Z,99.90
2019-02-15T07:15:33.673Z,99.90
2019-02-15T07:17:59.945Z,99.90
2019-02-15T07:20:28.508Z,99.90
2019-02-15T07:22:57.090Z,99.90
2019-02-15T07:25:25.648Z,98.60
2019-02-15T07:27:54.237Z,97.00
2019-02-15T07:30:22.804Z,95.50
2019-02-15T07:32:51.383Z,94.60
2019-02-15T07:35:19.945Z,93.00
2019-02-15T07:37:48.526Z,91.60
2019-02-15T07:40:17.157Z,90.80
2019-02-15T07:42:45.757Z,90.20
2019-02-15T07:45:14.385Z,88.90
2019-02-15T07:47:42.964Z,85.40
2019-02-15T07:50:13.571Z,85.60
2019-02-15T07:52:42.156Z,84.90
2019-02-15T07:55:10.787Z,83.70
2019-02-15T07:57:39.368Z,82.00
2019-02-15T08:00:13.496Z,83.20
2019-02-15T08:02:42.076Z,81.20
2019-02-15T08:05:11.272Z,80.80
2019-02-15T08:07:39.928Z,80.60
2019-02-15T08:10:10.899Z,79.40
2019-02-15T08:12:39.476Z,76.90
2019-02-15T08:15:09.779Z,76.90
2019-02-15T08:17:38.357Z,77.70
2019-02-15T08:20:10.132Z,77.50
2019-02-15T08:22:38.779Z,76.50
2019-02-15T08:25:08.293Z,77.80
2019-02-15T08:27:36.942Z,79.10
2019-02-15T08:30:08.508Z,78.20
2019-02-15T08:32:37.100Z,74.60
2019-02-15T08:35:07.909Z,71.50
2019-02-15T08:37:36.603Z,71.50
2019-02-15T08:40:08.193Z,73.60
2019-02-15T08:42:36.845Z,71.90
2019-02-15T08:45:08.744Z,71.90
2019-02-15T08:47:37.331Z,71.10
2019-02-15T08:50:08.535Z,71.20
2019-02-15T08:52:37.112Z,71.90
2019-02-15T08:55:08.224Z,69.50
2019-02-15T08:57:36.789Z,65.50
2019-02-15T09:00:08.356Z,63.80
2019-02-15T09:02:36.988Z,62.30
2019-02-15T09:05:07.811Z,63.70
2019-02-15T09:07:36.369Z,62.40
2019-02-15T09:10:07.899Z,62.50
2019-02-15T09:12:36.453Z,68.40
2019-02-15T09:15:08.145Z,69.60
2019-02-15T09:17:36.696Z,68.80
2019-02-15T09:20:08.554Z,65.80
2019-02-15T09:22:37.138Z,64.30
2019-02-15T09:25:07.955Z,67.90
2019-02-15T09:27:38.156Z,71.70
2019-02-15T09:30:09.805Z,74.90
2019-02-15T09:32:38.362Z,72.50
2019-02-15T09:35:09.577Z,72.90
2019-02-15T09:37:38.237Z,71.80
2019-02-15T09:40:09.366Z,71.90
2019-02-15T09:42:37.916Z,71.70
2019-02-15T09:45:10.039Z,72.00
2019-02-15T09:47:38.598Z,68.00
2019-02-15T09:50:12.369Z,68.30
2019-02-15T09:52:41.108Z,65.10
2019-02-15T09:55:09.774Z,65.30
2019-02-15T09:57:38.366Z,64.50
2019-02-15T10:00:09.185Z,63.90
2019-02-15T10:02:37.752Z,63.80
2019-02-15T10:05:07.767Z,63.80
2019-02-15T10:07:36.432Z,65.90
2019-02-15T10:10:10.117Z,62.50
2019-02-15T10:12:38.668Z,59.90
2019-02-15T10:15:09.400Z,59.90
2019-02-15T10:17:37.986Z,60.10
2019-02-15T10:20:07.707Z,61.20
2019-02-15T10:22:36.329Z,61.70
2019-02-15T10:25:07.523Z,61.30
2019-02-15T10:27:36.080Z,61.80
2019-02-15T10:30:10.208Z,62.70
2019-02-15T10:32:38.772Z,61.90
2019-02-15T10:35:12.124Z,60.80
2019-02-15T10:37:40.685Z,59.90
2019-02-15T10:40:10.709Z,60.00
2019-02-15T10:42:39.334Z,58.40
2019-02-15T10:45:13.496Z,58.90
2019-02-15T10:47:42.055Z,59.00
2019-02-15T10:50:11.557Z,59.00
2019-02-15T10:52:40.136Z,60.30
2019-02-15T10:55:09.446Z,62.00
2019-02-15T10:57:38.163Z,59.50
2019-02-15T11:00:19.018Z,58.70
2019-02-15T11:02:48.095Z,58.60
2019-02-15T11:05:17.740Z,58.00
2019-02-15T11:07:46.327Z,57.10
2019-02-15T11:10:14.925Z,57.40
2019-02-15T11:12:43.515Z,57.90
2019-02-15T11:15:18.325Z,58.50
2019-02-15T11:17:46.911Z,57.80
2019-02-15T11:20:17.211Z,58.00
2019-02-15T11:22:45.874Z,56.50
2019-02-15T11:25:14.603Z,56.20
2019-02-15T11:27:43.217Z,54.80
2019-02-15T11:30:16.206Z,55.70
2019-02-15T11:32:44.778Z,56.40
2019-02-15T11:35:14.939Z,57.20
2019-02-15T11:37:43.517Z,56.50
2019-02-15T11:40:15.675Z,54.50
2019-02-15T11:42:44.248Z,54.30
2019-02-15T11:45:14.507Z,54.70
2019-02-15T11:47:43.203Z,53.60
2019-02-15T11:50:13.104Z,53.50
2019-02-15T11:52:41.769Z,51.10
2019-02-15T11:55:11.270Z,47.40
2019-02-15T11:57:39.983Z,47.40
2019-02-15T12:00:17.810Z,46.20
2019-02-15T12:02:46.261Z,46.30
2019-02-15T12:05:14.860Z,45.30
2019-02-15T12:07:43.465Z,44.40
2019-02-15T12:10:12.190Z,42.80
2019-02-15T12:12:40.802Z,42.40
2019-02-15T12:15:10.429Z,42.00
2019-02-15T12:17:39.009Z,40.00
2019-02-15T12:20:15.361Z,40.10
2019-02-15T12:22:43.983Z,40.00
2019-02-15T12:25:12.709Z,40.00
2019-02-15T12:27:41.433Z,39.00
2019-02-15T12:30:15.290Z,39.00
2019-02-15T12:32:43.872Z,39.20
2019-02-15T12:35:12.768Z,39.30
2019-02-15T12:37:41.531Z,39.90
2019-02-15T12:40:11.257Z,40.00
2019-02-15T12:42:39.836Z,39.40
2019-02-15T12:45:10.874Z,39.60
2019-02-15T12:47:39.482Z,39.20
2019-02-15T12:50:11.125Z,41.00
2019-02-15T12:52:39.688Z,40.10
2019-02-15T12:55:08.452Z,40.30
2019-02-15T12:57:37.007Z,41.00
2019-02-15T13:00:16.907Z,41.00
2019-02-15T13:02:45.461Z,40.90
2019-02-15T13:05:14.681Z,40.10
2019-02-15T13:07:43.250Z,40.30
2019-02-15T13:10:29.660Z,40.00
2019-02-15T13:12:58.252Z,40.20
2019-02-15T13:15:26.850Z,41.20
2019-02-15T13:17:55.412Z,41.70
2019-02-15T13:20:23.992Z,41.10
2019-02-15T13:22:52.553Z,42.40
2019-02-15T13:25:21.140Z,40.00
2019-02-15T13:27:49.697Z,40.80
2019-02-15T13:30:18.358Z,41.70
2019-02-15T13:32:46.997Z,41.50
2019-02-15T13:35:18.958Z,42.30
2019-02-15T13:37:47.521Z,43.70
2019-02-15T13:40:16.126Z,45.20
2019-02-15T13:42:44.685Z,45.90
2019-02-15T13:45:13.834Z,45.60
2019-02-15T13:47:42.400Z,47.20
2019-02-15T13:50:16.063Z,47.40
2019-02-15T13:52:44.685Z,48.80
2019-02-15T13:55:13.261Z,50.60
2019-02-15T13:57:41.832Z,51.60
2019-02-15T14:00:12.662Z,52.70
2019-02-15T14:02:41.293Z,52.90
2019-02-15T14:05:11.799Z,52.30
2019-02-15T14:07:40.658Z,53.20
2019-02-15T14:10:12.451Z,52.70
2019-02-15T14:12:41.093Z,53.30
2019-02-15T14:15:12.005Z,53.70
2019-02-15T14:17:45.363Z,52.30
2019-02-15T14:20:13.435Z,51.40
2019-02-15T14:22:42.668Z,51.90
2019-02-15T14:25:12.776Z,50.60
2019-02-15T14:27:42.040Z,50.10
2019-02-15T14:30:12.158Z,49.50
2019-02-15T14:32:41.077Z,48.80
2019-02-15T14:35:12.249Z,49.10
2019-02-15T14:37:41.012Z,49.60
2019-02-15T14:40:12.142Z,49.40
2019-02-15T14:42:40.916Z,50.00
2019-02-15T14:45:11.688Z,49.70
2019-02-15T14:47:40.866Z,49.30
2019-02-15T14:50:11.220Z,48.80
2019-02-15T14:52:39.951Z,49.10
2019-02-15T14:55:10.495Z,48.90
2019-02-15T14:57:39.526Z,48.40
2019-02-15T15:00:13.226Z,49.50
2019-02-15T15:02:55.159Z,50.30
2019-02-15T15:05:21.119Z,49.90
2019-02-15T15:07:50.274Z,49.70
2019-02-15T15:10:19.282Z,49.20
2019-02-15T15:12:48.279Z,50.60
2019-02-15T15:15:16.984Z,49.80
2019-02-15T15:17:45.624Z,50.00
2019-02-15T15:20:14.367Z,49.30
2019-02-15T15:22:42.923Z,49.50
2019-02-15T15:25:13.834Z,50.30
2019-02-15T15:27:42.749Z,50.40
2019-02-15T15:30:15.691Z,52.20
2019-02-15T15:32:44.316Z,53.30
2019-02-15T15:35:13.313Z,54.50
2019-02-15T15:37:41.895Z,54.30
2019-02-15T15:40:13.025Z,55.00
2019-02-15T15:42:41.584Z,55.50
2019-02-15T15:45:11.836Z,55.40
2019-02-15T15:47:40.573Z,55.80
2019-02-15T15:50:11.144Z,57.00
2019-02-15T15:52:39.820Z,57.10
2019-02-15T15:55:13.321Z,58.20
2019-02-15T15:57:41.866Z,58.80
2019-02-15T16:00:15.995Z,59.90
2019-02-15T16:02:44.570Z,61.50
2019-02-15T16:05:13.216Z,62.50
2019-02-15T16:07:43.726Z,63.50
2019-02-15T16:10:13.589Z,65.20
2019-02-15T16:12:42.408Z,66.60
2019-02-15T16:15:14.942Z,68.20
2019-02-15T16:17:43.947Z,70.10
2019-02-15T16:20:13.854Z,71.10
2019-02-15T16:22:42.845Z,72.20
2019-02-15T16:25:11.588Z,73.10
2019-02-15T16:27:40.153Z,74.30
2019-02-15T16:30:16.160Z,75.10
2019-02-15T16:32:44.789Z,76.30
2019-02-15T16:35:13.542Z,78.10
2019-02-15T16:37:42.146Z,80.00
2019-02-15T16:40:15.158Z,82.40
2019-02-15T16:42:43.718Z,83.20
2019-02-15T16:45:14.531Z,83.70
2019-02-15T16:47:43.234Z,85.30
2019-02-15T16:50:12.579Z,86.30
2019-02-15T16:52:41.170Z,87.30
2019-02-15T16:55:12.981Z,88.50
2019-02-15T16:57:40.365Z,89.20
2019-02-15T17:00:13.789Z,90.10
2019-02-15T17:02:42.341Z,90.60
2019-02-15T17:05:11.354Z,91.10
2019-02-15T17:07:39.952Z,91.60
2019-02-15T17:10:10.170Z,92.00
2019-02-15T17:12:38.828Z,92.60
2019-02-15T17:15:10.379Z,93.40
2019-02-15T17:17:38.960Z,93.70
2019-02-15T17:20:09.358Z,94.20
2019-02-15T17:22:37.937Z,94.30
2019-02-15T17:25:09.365Z,94.70
2019-02-15T17:27:38.001Z,95.00
2019-02-15T17:30:11.731Z,95.50
2019-02-15T17:32:40.376Z,95.70
2019-02-15T17:35:10.483Z,95.40
2019-02-15T17:37:39.094Z,95.70
2019-02-15T17:40:10.444Z,96.10
2019-02-15T17:42:39.053Z,96.60
2019-02-15T17:45:09.744Z,97.00
2019-02-15T17:47:38.328Z,97.50
2019-02-15T17:50:09.057Z,98.10
2019-02-15T17:52:37.700Z,98.30
2019-02-15T17:55:08.296Z,98.20
2019-02-15T17:57:36.954Z,98.90
2019-02-15T18:00:09.113Z,99.10
2019-02-15T18:02:40.339Z,99.30
2019-02-15T18:05:11.976Z,99.30
2019-02-15T18:07:40.589Z,99.40
2019-02-15T18:10:09.288Z,99.70
2019-02-15T18:12:37.867Z,99.60
2019-02-15T18:15:06.856Z,99.70
2019-02-15T18:17:35.454Z,99.90
2019-02-15T18:20:05.465Z,99.90
2019-02-15T18:22:34.078Z,99.90
2019-02-15T18:25:02.628Z,99.90
2019-02-15T18:27:31.289Z,99.90
2019-02-15T18:29:59.886Z,99.90
2019-02-15T18:32:28.565Z,99.90
2019-02-15T18:34:57.149Z,99.90
2019-02-15T18:37:25.869Z,99.90
2019-02-15T18:39:54.432Z,99.90
2019-02-15T18:42:23.047Z,99.90
2019-02-15T18:44:51.600Z,99.90
2019-02-15T18:47:20.654Z,99.90
2019-02-15T18:49:49.230Z,99.90
2019-02-15T18:52:17.813Z,99.90
2019-02-15T18:54:46.579Z,99.90
2019-02-15T18:57:15.152Z,99.90
2019-02-15T18:59:43.704Z,99.90
2019-02-15T19:02:12.322Z,99.90
2019-02-15T19:04:40.882Z,99.90
2019-02-15T19:07:09.603Z,99.90
2019-02-15T19:09:38.151Z,99.90
2019-02-15T19:12:06.837Z,99.90
2019-02-15T19:14:35.392Z,99.90
2019-02-15T19:17:04.554Z,99.90
2019-02-15T19:19:33.351Z,99.90
2019-02-15T19:22:02.004Z,99.90
2019-02-15T19:24:30.572Z,99.90
2019-02-15T19:26:59.153Z,99.90
2019-02-15T19:29:27.732Z,99.90
2019-02-15T19:31:56.303Z,99.90
2019-02-15T19:34:24.885Z,99.90
2019-02-15T19:36:53.622Z,99.90
2019-02-15T19:39:22.217Z,99.90
2019-02-15T19:41:50.862Z,99.90
2019-02-15T19:44:19.469Z,99.90
2019-02-15T19:46:48.388Z,99.90
2019-02-15T19:49:16.927Z,99.90
2019-02-15T19:51:45.461Z,99.90
2019-02-15T19:54:14.050Z,99.90
2019-02-15T19:56:42.765Z,99.90
2019-02-15T19:59:11.344Z,99.90
2019-02-15T20:01:39.899Z,99.90
2019-02-15T20:04:08.932Z,99.90
2019-02-15T20:06:37.523Z,99.90
2019-02-15T20:09:06.304Z,99.90
2019-02-15T20:11:34.862Z,99.90
2019-02-15T20:14:03.575Z,99.90
2019-02-15T20:16:32.163Z,99.90
2019-02-15T20:19:00.807Z,99.90
2019-02-15T20:21:29.397Z,99.90
2019-02-15T20:23:58.083Z,99.90
2019-02-15T20:26:26.737Z,99.90
2019-02-15T20:28:55.318Z,99.90
2019-02-15T20:31:23.983Z,99.90
2019-02-15T20:33:52.556Z,99.90
2019-02-15T20:36:21.120Z,99.90
2019-02-15T20:38:49.782Z,99.90
2019-02-15T20:41:18.336Z,99.90
2019-02-15T20:43:47.018Z,99.90
2019-02-15T20:46:15.643Z,99.90
2019-02-15T20:48:44.180Z,99.90
2019-02-15T20:51:12.963Z,99.90
2019-02-15T20:53:41.551Z,99.90
2019-02-15T20:56:10.304Z,99.90
2019-02-15T20:58:39.039Z,99.90
2019-02-15T21:01:07.678Z,99.90
2019-02-15T21:03:36.275Z,99.90
2019-02-15T21:06:05.006Z,99.90
2019-02-15T21:08:33.707Z,99.90
2019-02-15T21:11:02.340Z,99.90
2019-02-15T21:13:30.903Z,99.90
2019-02-15T21:15:59.485Z,99.90
2019-02-15T21:18:28.125Z,99.90
2019-02-15T21:20:56.752Z,99.90
2019-02-15T21:23:25.461Z,99.90
2019-02-15T21:25:54.048Z,99.90
2019-02-15T21:28:22.653Z,99.90
2019-02-15T21:30:51.257Z,99.90
2019-02-15T21:33:19.881Z,99.90
2019-02-15T21:35:48.461Z,99.90
2019-02-15T21:38:17.029Z,99.90
2019-02-15T21:40:45.615Z,99.90
2019-02-15T21:43:14.183Z,99.90
2019-02-15T21:45:42.793Z,99.90
2019-02-15T21:48:11.509Z,99.90
2019-02-15T21:50:40.096Z,99.90
2019-02-15T21:53:08.660Z,99.90
2019-02-15T21:55:37.249Z,99.90
2019-02-15T21:58:05.915Z,99.90
2019-02-15T22:00:34.569Z,99.90
2019-02-15T22:03:03.168Z,99.90
2019-02-15T22:05:31.741Z,99.90
2019-02-15T22:08:00.392Z,99.90
2019-02-15T22:10:29.075Z,99.90
2019-02-15T22:12:57.700Z,99.90
2019-02-15T22:15:26.279Z,99.90
2019-02-15T22:17:54.853Z,99.90
2019-02-15T22:20:26.589Z,99.90
2019-02-15T22:22:53.652Z,99.90
2019-02-15T22:25:22.262Z,99.90
2019-02-15T22:27:50.884Z,99.90
2019-02-15T22:30:20.425Z,99.90
2019-02-15T22:32:49.064Z,99.90
2019-02-15T22:35:17.649Z,99.90
2019-02-15T22:37:46.212Z,99.90
2019-02-15T22:40:29.093Z,99.90
2019-02-15T22:43:12.324Z,99.90
2019-02-15T22:45:40.975Z,99.90
2019-02-15T22:48:09.625Z,99.90
2019-02-15T22:50:38.249Z,99.90
2019-02-15T22:53:06.800Z,99.90
2019-02-15T22:55:35.457Z,99.90
2019-02-15T22:58:04.622Z,99.90
2019-02-15T23:00:52.834Z,99.90
2019-02-15T23:03:23.767Z,99.90
2019-02-15T23:05:52.500Z,99.90
2019-02-15T23:08:21.200Z,99.90
2019-02-15T23:10:49.847Z,99.90
2019-02-15T23:13:18.429Z,99.90
2019-02-15T23:15:47.176Z,99.90
2019-02-15T23:18:15.870Z,99.90
2019-02-15T23:20:45.557Z,99.90
2019-02-15T23:23:14.317Z,99.90
2019-02-15T23:25:42.885Z,99.90
2019-02-15T23:28:11.542Z,99.90
2019-02-15T23:30:40.160Z,99.90
2019-02-15T23:33:10.272Z,99.90
2019-02-15T23:35:38.872Z,99.90
2019-02-15T23:38:07.457Z,99.90
2019-02-15T23:40:36.029Z,99.90
2019-02-15T23:43:04.616Z,99.90
2019-02-15T23:45:33.251Z,99.90
2019-02-15T23:48:01.840Z,99.90
2019-02-15T23:50:30.472Z,99.90
2019-02-15T23:52:59.092Z,99.90
2019-02-15T23:55:27.688Z,99.90
2019-02-15T23:57:56.277Z,99.90
